createdAt,value
2018-05-16T00:01:04.988Z,1015.4
2018-05-16T00:06:04.436Z,1015.4
2018-05-16T00:11:04.996Z,1015.4
2018-05-16T00:16:04.354Z,1015.5
2018-05-16T00:21:05.125Z,1015.6
2018-05-16T00:26:05.014Z,1015.7
2018-05-16T00:31:04.292Z,1015.7
2018-05-16T00:36:04.814Z,1015.8
2018-05-16T00:41:04.996Z,1015.9
2018-05-16T00:46:04.660Z,1015.9
2018-05-16T00:51:05.125Z,1015.9
2018-05-16T00:56:04.384Z,1015.9
2018-05-16T01:01:05.093Z,1016.1
2018-05-16T01:06:05.079Z,1016.2
2018-05-16T01:11:04.721Z,1016.1
2018-05-16T01:16:04.998Z,1016
2018-05-16T01:21:04.539Z,1015.9
2018-05-16T01:26:04.755Z,1016.2
2018-05-16T01:31:05.033Z,1016.3
2018-05-16T01:36:04.579Z,1016.3
2018-05-16T01:41:05.108Z,1016.2
2018-05-16T01:46:04.345Z,1016
2018-05-16T01:51:04.826Z,1016
2018-05-16T01:56:05.033Z,1015.9
2018-05-16T02:01:04.433Z,1015.8
2018-05-16T02:06:04.803Z,1015.7
2018-05-16T02:11:04.410Z,1015.6
2018-05-16T02:16:04.723Z,1015.6
2018-05-16T02:21:05.162Z,1015.7
2018-05-16T02:26:04.400Z,1015.7
2018-05-16T02:31:04.712Z,1015.8
2018-05-16T02:36:05.959Z,1015.7
2018-05-16T02:41:04.741Z,1015.7
2018-05-16T02:46:05.425Z,1015.8
2018-05-16T02:51:04.463Z,1015.8
2018-05-16T02:56:04.691Z,1015.7
2018-05-16T03:01:05.839Z,1015.7
2018-05-16T03:06:05.179Z,1015.7
2018-05-16T03:11:05.084Z,1015.7
2018-05-16T03:16:04.402Z,1015.8
2018-05-16T03:21:05.729Z,1015.9
2018-05-16T03:26:05.059Z,1015.9
2018-05-16T03:31:04.799Z,1016
2018-05-16T03:36:04.839Z,1016.1
2018-05-16T03:41:04.445Z,1016.2
2018-05-16T03:46:04.705Z,1016.3
2018-05-16T03:51:05.223Z,1016.2
2018-05-16T03:56:04.803Z,1016.5
2018-05-16T04:01:04.713Z,1016.5
2018-05-16T04:06:05.156Z,1016.6
2018-05-16T04:11:04.753Z,1016.6
2018-05-16T04:16:05.434Z,1016.7
2018-05-16T04:21:04.585Z,1016.6
2018-05-16T04:26:05.232Z,1016.7
2018-05-16T04:31:05.243Z,1016.7
2018-05-16T04:36:04.745Z,1016.7
2018-05-16T04:41:04.343Z,1016.6
2018-05-16T04:46:04.544Z,1016.7
2018-05-16T04:51:05.680Z,1016.8
2018-05-16T04:56:05.280Z,1016.9
2018-05-16T05:01:05.090Z,1016.8
2018-05-16T05:06:04.991Z,1016.8
2018-05-16T05:11:04.589Z,1016.9
2018-05-16T05:16:04.888Z,1016.9
2018-05-16T05:21:04.369Z,1016.9
2018-05-16T05:26:04.593Z,1016.9
2018-05-16T05:31:04.878Z,1016.9
2018-05-16T05:36:06.374Z,1016.8
2018-05-16T05:41:04.921Z,1016.9
2018-05-16T05:46:05.198Z,1016.8
2018-05-16T05:51:04.671Z,1016.8
2018-05-16T05:56:04.891Z,1016.9
2018-05-16T06:01:05.208Z,1016.9
2018-05-16T06:06:04.693Z,1016.8
2018-05-16T06:11:05.235Z,1016.9
2018-05-16T06:16:04.554Z,1016.9
2018-05-16T06:21:05.067Z,1016.9
2018-05-16T06:26:04.304Z,1017
2018-05-16T06:31:04.552Z,1017.1
2018-05-16T06:36:04.989Z,1017.1
2018-05-16T06:41:04.654Z,1017.2
2018-05-16T06:46:04.925Z,1017.3
2018-05-16T06:51:05.394Z,1017.2
2018-05-16T06:56:09.577Z,1017.3
2018-05-16T07:01:04.900Z,1017.3
2018-05-16T07:06:05.288Z,1017.3
2018-05-16T07:11:04.885Z,1017.3
2018-05-16T07:16:06.080Z,1017.3
2018-05-16T07:21:04.662Z,1017.3
2018-05-16T07:26:04.949Z,1017.3
2018-05-16T07:31:05.133Z,1017.3
2018-05-16T07:36:04.667Z,1017.4
2018-05-16T07:41:05.499Z,1017.4
2018-05-16T07:46:04.511Z,1017.3
2018-05-16T07:51:04.972Z,1017.4
2018-05-16T07:56:05.843Z,1017.4
2018-05-16T08:01:04.420Z,1017.4
2018-05-16T08:06:05.008Z,1017.4
2018-05-16T08:11:04.572Z,1017.5
2018-05-16T08:16:04.809Z,1017.6
2018-05-16T08:21:05.340Z,1017.7
2018-05-16T08:26:04.565Z,1017.7
2018-05-16T08:31:05.059Z,1017.7
2018-05-16T08:36:05.318Z,1017.6
2018-05-16T08:41:04.890Z,1017.6
2018-05-16T08:46:05.271Z,1017.6
2018-05-16T08:51:04.652Z,1017.7
2018-05-16T08:56:04.868Z,1017.6
2018-05-16T09:01:05.382Z,1017.7
2018-05-16T09:06:04.701Z,1017.7
2018-05-16T09:11:05.276Z,1017.6
2018-05-16T09:16:04.554Z,1017.6
2018-05-16T09:21:05.026Z,1017.5
2018-05-16T09:26:05.262Z,1017.6
2018-05-16T09:31:04.553Z,1017.6
2018-05-16T09:36:04.993Z,1017.6
2018-05-16T09:41:04.599Z,1017.7
2018-05-16T09:46:05.496Z,1017.7
2018-05-16T09:51:05.290Z,1017.7
2018-05-16T09:56:04.568Z,1017.7
2018-05-16T10:01:04.812Z,1017.7
2018-05-16T10:06:05.308Z,1017.6
2018-05-16T10:11:05.056Z,1017.7
2018-05-16T10:16:05.342Z,1017.8
2018-05-16T10:21:04.736Z,1017.8
2018-05-16T10:26:04.961Z,1018
2018-05-16T10:31:05.705Z,1017.9
2018-05-16T10:36:05.119Z,1017.9
2018-05-16T10:41:04.274Z,1018
2018-05-16T10:46:04.591Z,1017.9
2018-05-16T10:51:05.053Z,1017.9
2018-05-16T10:56:05.254Z,1017.9
2018-05-16T11:01:04.550Z,1017.9
2018-05-16T11:06:05.007Z,1017.8
2018-05-16T11:11:04.658Z,1017.9
2018-05-16T11:16:04.919Z,1017.9
2018-05-16T11:21:04.787Z,1017.9
2018-05-16T11:26:04.708Z,1017.8
2018-05-16T11:31:04.901Z,1017.8
2018-05-16T11:36:04.418Z,1017.9
2018-05-16T11:41:04.968Z,1018
2018-05-16T11:46:05.266Z,1018.1
2018-05-16T11:51:04.738Z,1018.1
2018-05-16T11:56:04.941Z,1018.2
2018-05-16T12:01:05.276Z,1018.1
2018-05-16T12:06:04.785Z,1018.3
2018-05-16T12:11:04.322Z,1018.4
2018-05-16T12:16:04.623Z,1018.4
2018-05-16T12:21:05.073Z,1018.6
2018-05-16T12:26:04.416Z,1018.5
2018-05-16T12:31:04.580Z,1018.4
2018-05-16T12:36:06.444Z,1018.3
2018-05-16T12:41:05.230Z,1018.3
2018-05-16T12:46:04.896Z,1018.3
2018-05-16T12:51:05.370Z,1018.3
2018-05-16T12:56:04.627Z,1018.3
2018-05-16T13:01:04.850Z,1018.3
2018-05-16T13:06:05.393Z,1018.3
2018-05-16T13:11:04.936Z,1018.4
2018-05-16T13:16:05.274Z,1018.5
2018-05-16T13:21:04.694Z,1018.4
2018-05-16T13:26:04.998Z,1018.3
2018-05-16T13:31:05.161Z,1018.4
2018-05-16T13:36:04.600Z,1018.3
2018-05-16T13:41:05.152Z,1018.4
2018-05-16T13:46:04.409Z,1018.4
2018-05-16T13:51:04.938Z,1018.5
2018-05-16T13:56:05.159Z,1018.2
2018-05-16T14:01:04.437Z,1018
2018-05-16T14:06:09.925Z,1017.9
2018-05-16T14:11:04.466Z,1017.8
2018-05-16T14:16:05.293Z,1017.7
2018-05-16T14:21:05.276Z,1017.6
2018-05-16T14:26:04.589Z,1017.6
2018-05-16T14:31:05.362Z,1017.4
2018-05-16T14:36:05.895Z,1017.4
2018-05-16T14:41:04.796Z,1017.4
2018-05-16T14:46:05.152Z,1017.3
2018-05-16T14:51:04.550Z,1017.3
2018-05-16T14:56:04.767Z,1017.2
2018-05-16T15:01:05.516Z,1017
2018-05-16T15:06:04.506Z,1016.9
2018-05-16T15:11:05.099Z,1016.8
2018-05-16T15:16:04.411Z,1016.8
2018-05-16T15:21:04.841Z,1016.8
2018-05-16T15:26:05.067Z,1016.9
2018-05-16T15:31:04.391Z,1016.9
2018-05-16T15:36:05.519Z,1016.7
2018-05-16T15:41:04.419Z,1016.8
2018-05-16T15:46:04.791Z,1016.7
2018-05-16T15:51:05.367Z,1016.7
2018-05-16T15:56:04.786Z,1016.6
2018-05-16T16:01:10.001Z,1016.6
2018-05-16T16:06:05.835Z,1016.6
2018-05-16T16:11:05.314Z,1016.7
2018-05-16T16:16:04.990Z,1016.8
2018-05-16T16:21:04.487Z,1016.9
2018-05-16T16:26:04.779Z,1017.1
2018-05-16T16:31:05.296Z,1017.2
2018-05-16T16:36:04.608Z,1017.4
2018-05-16T16:41:05.936Z,1017.3
2018-05-16T16:46:04.767Z,1018
2018-05-16T16:51:05.073Z,1019
2018-05-16T16:56:05.632Z,1018
2018-05-16T17:01:04.378Z,1018.4
2018-05-16T17:06:04.843Z,1018
2018-05-16T17:11:04.461Z,1017.7
2018-05-16T17:16:04.752Z,1017.7
2018-05-16T17:21:05.183Z,1017.9
2018-05-16T17:26:04.988Z,1017.9
2018-05-16T17:31:07.072Z,1017.9
2018-05-16T17:36:06.321Z,1017.9
2018-05-16T17:41:06.913Z,1018.1
2018-05-16T17:46:07.967Z,1018.4
2018-05-16T17:51:06.971Z,1018.7
2018-05-16T17:56:06.593Z,1019.3
2018-05-16T18:01:11.641Z,1019.4
2018-05-16T18:06:06.087Z,1019.4
2018-05-16T18:11:07.325Z,1019.5
2018-05-16T18:16:05.951Z,1019.5
2018-05-16T18:21:07.300Z,1019.5
2018-05-16T18:26:08.577Z,1019.3
2018-05-16T18:31:06.970Z,1019.1
2018-05-16T18:36:07.956Z,1019.3
2018-05-16T18:41:07.512Z,1019.3
2018-05-16T18:46:07.148Z,1019.2
2018-05-16T18:51:07.746Z,1019.1
2018-05-16T18:56:06.971Z,1019.2
2018-05-16T19:01:07.174Z,1019.3
2018-05-16T19:06:07.777Z,1019.3
2018-05-16T19:11:07.698Z,1019.4
2018-05-16T19:16:07.982Z,1019.4
2018-05-16T19:21:07.441Z,1019.4
2018-05-16T19:26:07.645Z,1019.5
2018-05-16T19:31:07.057Z,1019.7
2018-05-16T19:36:06.861Z,1019.8
2018-05-16T19:41:07.391Z,1019.9
2018-05-16T19:46:07.833Z,1020.1
2018-05-16T19:51:07.257Z,1020.2
2018-05-16T19:56:07.391Z,1020.3
2018-05-16T20:01:07.152Z,1020.3
2018-05-16T20:06:08.297Z,1020.5
2018-05-16T20:11:06.976Z,1020.4
2018-05-16T20:16:07.149Z,1020.6
2018-05-16T20:21:07.560Z,1020.7
2018-05-16T20:26:07.479Z,1020.7
2018-05-16T20:31:07.020Z,1020.7
2018-05-16T20:36:07.532Z,1020.6
2018-05-16T20:41:06.578Z,1020.6
2018-05-16T20:46:06.118Z,1020.6
2018-05-16T20:51:06.516Z,1020.5
2018-05-16T20:56:05.005Z,1020.6
2018-05-16T21:01:05.709Z,1020.5
2018-05-16T21:06:04.551Z,1020.5
2018-05-16T21:11:05.581Z,1020.5
2018-05-16T21:16:04.423Z,1020.7
2018-05-16T21:21:05.302Z,1020.7
2018-05-16T21:26:05.102Z,1020.7
2018-05-16T21:31:04.436Z,1020.6
2018-05-16T21:36:12.206Z,1020.8
2018-05-16T21:41:05.659Z,1020.8
2018-05-16T21:46:04.777Z,1020.8
2018-05-16T21:51:05.853Z,1020.9
2018-05-16T21:56:04.456Z,1021
2018-05-16T22:01:04.723Z,1021.2
2018-05-16T22:06:05.173Z,1021.3
2018-05-16T22:11:04.807Z,1021.3
2018-05-16T22:16:05.071Z,1021.2
2018-05-16T22:21:04.639Z,1021.2
2018-05-16T22:26:04.830Z,1021.3
2018-05-16T22:31:05.117Z,1021.4
2018-05-16T22:36:04.808Z,1021.4
2018-05-16T22:41:05.405Z,1021.4
2018-05-16T22:46:04.436Z,1021.4
2018-05-16T22:51:04.951Z,1021.4
2018-05-16T22:56:05.125Z,1021.4
2018-05-16T23:01:04.577Z,1021.4
2018-05-16T23:06:05.871Z,1021.4
2018-05-16T23:11:04.837Z,1021.3
2018-05-16T23:16:05.041Z,1021.4
2018-05-16T23:21:05.226Z,1021.4
2018-05-16T23:26:04.471Z,1021.4
2018-05-16T23:31:05.240Z,1021.3
2018-05-16T23:36:05.208Z,1021.3
2018-05-16T23:41:04.845Z,1021.3
2018-05-16T23:46:05.196Z,1021.5
2018-05-16T23:51:04.557Z,1021.5
2018-05-16T23:56:04.776Z,1021.7
